sensor_id;sensor_type;location;lat;lon;timestamp;pressure;altitude;pressure_sealevel;temperature;humidity
52625;BME280;38519;52.540;13.410;2023-06-01T00:00:27;100849.22;;;16.11;100.00
52625;BME280;38519;52.540;13.410;2023-06-01T00:02:52;100850.91;;;16.09;100.00
52625;BME280;38519;52.540;13.410;2023-06-01T00:05:18;100842.47;;;16.16;100.00
52625;BME280;38519;52.540;13.410;2023-06-01T00:07:44;100845.72;;;16.10;100.00
52625;BME280;38519;52.540;13.410;2023-06-01T00:10:09;100839.94;;;16.01;100.00
52625;BME280;38519;52.540;13.410;2023-06-01T00:12:34;100844.00;;;15.94;100.00
52625;BME280;38519;52.540;13.410;2023-06-01T00:15:00;100838.31;;;15.87;100.00
52625;BME280;38519;52.540;13.410;2023-06-01T00:17:25;100841.03;;;15.88;100.00
52625;BME280;38519;52.540;13.410;2023-06-01T00:19:50;100840.22;;;15.89;100.00
52625;BME280;38519;52.540;13.410;2023-06-01T00:22:18;100843.50;;;15.85;100.00
52625;BME280;38519;52.540;13.410;2023-06-01T00:24:43;100839.88;;;15.83;100.00
52625;BME280;38519;52.540;13.410;2023-06-01T00:27:08;100838.75;;;15.78;100.00
52625;BME280;38519;52.540;13.410;2023-06-01T00:29:34;100835.66;;;15.70;100.00
52625;BME280;38519;52.540;13.410;2023-06-01T00:31:59;100842.22;;;15.62;100.00
52625;BME280;38519;52.540;13.410;2023-06-01T00:34:24;100842.88;;;15.58;100.00
52625;BME280;38519;52.540;13.410;2023-06-01T00:36:49;100832.09;;;15.53;100.00
52625;BME280;38519;52.540;13.410;2023-06-01T00:39:15;100838.81;;;15.48;100.00
52625;BME280;38519;52.540;13.410;2023-06-01T00:41:40;100844.00;;;15.46;100.00
52625;BME280;38519;52.540;13.410;2023-06-01T00:44:06;100835.22;;;15.46;100.00
52625;BME280;38519;52.540;13.410;2023-06-01T00:46:32;100836.75;;;15.42;100.00
52625;BME280;38519;52.540;13.410;2023-06-01T00:48:58;100834.69;;;15.37;100.00
52625;BME280;38519;52.540;13.410;2023-06-01T00:51:23;100837.94;;;15.47;100.00
52625;BME280;38519;52.540;13.410;2023-06-01T00:53:49;100841.47;;;15.48;100.00
52625;BME280;38519;52.540;13.410;2023-06-01T00:56:14;100834.22;;;15.44;100.00
52625;BME280;38519;52.540;13.410;2023-06-01T00:58:40;100840.06;;;15.38;100.00
52625;BME280;38519;52.540;13.410;2023-06-01T01:01:06;100835.25;;;15.31;100.00
52625;BME280;38519;52.540;13.410;2023-06-01T01:03:32;100836.81;;;15.27;100.00
52625;BME280;38519;52.540;13.410;2023-06-01T01:06:11;100834.59;;;15.19;100.00
52625;BME280;38519;52.540;13.410;2023-06-01T01:11:34;100832.59;;;15.15;100.00
52625;BME280;38519;52.540;13.410;2023-06-01T01:14:05;100827.91;;;15.09;100.00
52625;BME280;38519;52.540;13.410;2023-06-01T01:16:38;100824.44;;;15.10;100.00
52625;BME280;38519;52.540;13.410;2023-06-01T01:19:29;100829.06;;;15.14;100.00
52625;BME280;38519;52.540;13.410;2023-06-01T01:22:07;100836.59;;;15.08;100.00
52625;BME280;38519;52.540;13.410;2023-06-01T01:29:54;100832.03;;;14.89;100.00
52625;BME280;38519;52.540;13.410;2023-06-01T01:32:21;100829.56;;;14.92;100.00
52625;BME280;38519;52.540;13.410;2023-06-01T01:34:48;100831.75;;;14.84;100.00
52625;BME280;38519;52.540;13.410;2023-06-01T01:37:15;100820.25;;;14.82;100.00
52625;BME280;38519;52.540;13.410;2023-06-01T01:39:40;100826.13;;;14.78;100.00
52625;BME280;38519;52.540;13.410;2023-06-01T01:42:05;100822.06;;;14.68;100.00
52625;BME280;38519;52.540;13.410;2023-06-01T01:44:31;100822.34;;;14.58;100.00
52625;BME280;38519;52.540;13.410;2023-06-01T01:46:57;100826.34;;;14.51;100.00
52625;BME280;38519;52.540;13.410;2023-06-01T01:49:28;100816.34;;;14.46;100.00
52625;BME280;38519;52.540;13.410;2023-06-01T01:54:24;100820.81;;;14.47;100.00
52625;BME280;38519;52.540;13.410;2023-06-01T01:56:49;100814.28;;;14.40;100.00
52625;BME280;38519;52.540;13.410;2023-06-01T01:59:15;100810.63;;;14.38;100.00
52625;BME280;38519;52.540;13.410;2023-06-01T02:01:42;100811.28;;;14.34;100.00
52625;BME280;38519;52.540;13.410;2023-06-01T02:04:09;100799.88;;;14.33;100.00
52625;BME280;38519;52.540;13.410;2023-06-01T02:06:35;100809.94;;;14.26;100.00
52625;BME280;38519;52.540;13.410;2023-06-01T02:09:01;100809.19;;;14.28;100.00
52625;BME280;38519;52.540;13.410;2023-06-01T02:11:26;100809.66;;;14.21;100.00
52625;BME280;38519;52.540;13.410;2023-06-01T02:13:52;100801.50;;;14.16;100.00
52625;BME280;38519;52.540;13.410;2023-06-01T02:16:17;100800.31;;;14.11;100.00
52625;BME280;38519;52.540;13.410;2023-06-01T02:18:43;100803.47;;;14.06;100.00
52625;BME280;38519;52.540;13.410;2023-06-01T02:21:10;100802.28;;;13.86;100.00
52625;BME280;38519;52.540;13.410;2023-06-01T02:23:36;100809.97;;;13.82;100.00
52625;BME280;38519;52.540;13.410;2023-06-01T02:26:04;100802.41;;;13.74;100.00
52625;BME280;38519;52.540;13.410;2023-06-01T02:28:30;100803.44;;;13.76;100.00
52625;BME280;38519;52.540;13.410;2023-06-01T02:30:55;100795.47;;;13.74;100.00
52625;BME280;38519;52.540;13.410;2023-06-01T02:33:20;100796.00;;;13.69;100.00
52625;BME280;38519;52.540;13.410;2023-06-01T02:35:46;100799.16;;;13.63;100.00
52625;BME280;38519;52.540;13.410;2023-06-01T02:38:11;100795.59;;;13.62;100.00
52625;BME280;38519;52.540;13.410;2023-06-01T02:40:36;100791.41;;;13.51;100.00
52625;BME280;38519;52.540;13.410;2023-06-01T02:43:01;100788.50;;;13.46;100.00
52625;BME280;38519;52.540;13.410;2023-06-01T02:45:27;100800.81;;;13.47;100.00
52625;BME280;38519;52.540;13.410;2023-06-01T02:47:52;100797.19;;;13.45;100.00
52625;BME280;38519;52.540;13.410;2023-06-01T02:50:17;100794.09;;;13.38;100.00
52625;BME280;38519;52.540;13.410;2023-06-01T02:52:42;100789.84;;;13.40;100.00
52625;BME280;38519;52.540;13.410;2023-06-01T02:55:08;100793.00;;;13.34;100.00
52625;BME280;38519;52.540;13.410;2023-06-01T02:57:33;100795.72;;;13.36;100.00
52625;BME280;38519;52.540;13.410;2023-06-01T02:59:58;100799.44;;;13.26;100.00
52625;BME280;38519;52.540;13.410;2023-06-01T03:02:23;100786.75;;;13.19;100.00
52625;BME280;38519;52.540;13.410;2023-06-01T03:04:51;100790.16;;;13.18;100.00
52625;BME280;38519;52.540;13.410;2023-06-01T03:07:16;100791.38;;;13.09;100.00
52625;BME280;38519;52.540;13.410;2023-06-01T03:09:41;100792.63;;;13.01;100.00
52625;BME280;38519;52.540;13.410;2023-06-01T03:12:07;100793.84;;;12.93;100.00
52625;BME280;38519;52.540;13.410;2023-06-01T03:14:32;100790.91;;;12.88;100.00
52625;BME280;38519;52.540;13.410;2023-06-01T03:16:57;100793.03;;;12.81;100.00
52625;BME280;38519;52.540;13.410;2023-06-01T03:19:22;100792.75;;;12.89;100.00
52625;BME280;38519;52.540;13.410;2023-06-01T03:21:48;100787.44;;;12.74;100.00
52625;BME280;38519;52.540;13.410;2023-06-01T03:24:14;100792.06;;;12.65;100.00
52625;BME280;38519;52.540;13.410;2023-06-01T03:26:39;100791.22;;;12.66;100.00
52625;BME280;38519;52.540;13.410;2023-06-01T03:29:04;100799.81;;;12.50;100.00
52625;BME280;38519;52.540;13.410;2023-06-01T03:31:29;100792.66;;;12.48;100.00
52625;BME280;38519;52.540;13.410;2023-06-01T03:33:55;100790.72;;;12.45;100.00
52625;BME280;38519;52.540;13.410;2023-06-01T03:36:20;100801.00;;;12.42;100.00
52625;BME280;38519;52.540;13.410;2023-06-01T03:38:46;100801.59;;;12.38;100.00
52625;BME280;38519;52.540;13.410;2023-06-01T03:41:11;100803.72;;;12.30;100.00
52625;BME280;38519;52.540;13.410;2023-06-01T03:43:36;100806.00;;;12.26;100.00
52625;BME280;38519;52.540;13.410;2023-06-01T03:46:01;100797.84;;;12.21;100.00
52625;BME280;38519;52.540;13.410;2023-06-01T03:48:28;100804.00;;;12.22;100.00
52625;BME280;38519;52.540;13.410;2023-06-01T03:50:54;100800.88;;;12.14;100.00
52625;BME280;38519;52.540;13.410;2023-06-01T03:53:19;100795.41;;;12.11;100.00
52625;BME280;38519;52.540;13.410;2023-06-01T03:55:45;100802.63;;;12.01;100.00
52625;BME280;38519;52.540;13.410;2023-06-01T03:58:10;100790.56;;;12.03;100.00
52625;BME280;38519;52.540;13.410;2023-06-01T04:00:36;100791.16;;;11.99;100.00
52625;BME280;38519;52.540;13.410;2023-06-01T04:03:02;100785.94;;;11.88;100.00
52625;BME280;38519;52.540;13.410;2023-06-01T04:05:29;100792.69;;;11.84;100.00
52625;BME280;38519;52.540;13.410;2023-06-01T04:07:54;100789.28;;;11.85;100.00
52625;BME280;38519;52.540;13.410;2023-06-01T04:10:20;100785.03;;;11.87;100.00
52625;BME280;38519;52.540;13.410;2023-06-01T04:12:46;100786.97;;;11.90;100.00
52625;BME280;38519;52.540;13.410;2023-06-01T04:15:12;100790.75;;;11.93;100.00
52625;BME280;38519;52.540;13.410;2023-06-01T04:17:38;100789.94;;;11.94;100.00
52625;BME280;38519;52.540;13.410;2023-06-01T04:20:04;100790.38;;;11.89;100.00
52625;BME280;38519;52.540;13.410;2023-06-01T04:22:32;100792.78;;;11.85;100.00
52625;BME280;38519;52.540;13.410;2023-06-01T04:24:58;100794.16;;;11.92;100.00
52625;BME280;38519;52.540;13.410;2023-06-01T04:27:23;100801.09;;;11.92;100.00
52625;BME280;38519;52.540;13.410;2023-06-01T04:29:49;100801.63;;;11.99;100.00
52625;BME280;38519;52.540;13.410;2023-06-01T04:32:15;100803.16;;;12.09;100.00
52625;BME280;38519;52.540;13.410;2023-06-01T04:34:46;100800.53;;;12.09;100.00
52625;BME280;38519;52.540;13.410;2023-06-01T04:37:12;100801.56;;;12.11;100.00
52625;BME280;38519;52.540;13.410;2023-06-01T04:39:40;100805.69;;;12.08;100.00
52625;BME280;38519;52.540;13.410;2023-06-01T04:42:07;100800.09;;;11.78;100.00
52625;BME280;38519;52.540;13.410;2023-06-01T04:44:33;100797.66;;;11.68;100.00
52625;BME280;38519;52.540;13.410;2023-06-01T04:46:59;100801.06;;;11.66;100.00
52625;BME280;38519;52.540;13.410;2023-06-01T04:49:29;100801.81;;;11.52;100.00
52625;BME280;38519;52.540;13.410;2023-06-01T04:51:55;100796.63;;;11.40;100.00
52625;BME280;38519;52.540;13.410;2023-06-01T04:54:20;100798.69;;;11.44;100.00
52625;BME280;38519;52.540;13.410;2023-06-01T04:56:45;100803.13;;;11.59;100.00
52625;BME280;38519;52.540;13.410;2023-06-01T04:59:10;100806.72;;;11.47;100.00
52625;BME280;38519;52.540;13.410;2023-06-01T05:01:37;100795.41;;;11.60;100.00
52625;BME280;38519;52.540;13.410;2023-06-01T05:04:03;100805.28;;;11.64;100.00
52625;BME280;38519;52.540;13.410;2023-06-01T05:06:29;100802.41;;;11.73;100.00
52625;BME280;38519;52.540;13.410;2023-06-01T05:08:54;100812.28;;;11.77;100.00
52625;BME280;38519;52.540;13.410;2023-06-01T05:11:20;100807.22;;;11.67;100.00
52625;BME280;38519;52.540;13.410;2023-06-01T05:13:46;100804.28;;;11.62;100.00
52625;BME280;38519;52.540;13.410;2023-06-01T05:16:11;100801.69;;;11.51;100.00
52625;BME280;38519;52.540;13.410;2023-06-01T05:18:37;100797.19;;;11.48;100.00
52625;BME280;38519;52.540;13.410;2023-06-01T05:21:03;100790.50;;;11.40;100.00
52625;BME280;38519;52.540;13.410;2023-06-01T05:23:28;100788.72;;;11.27;100.00
52625;BME280;38519;52.540;13.410;2023-06-01T05:25:54;100788.13;;;11.31;100.00
52625;BME280;38519;52.540;13.410;2023-06-01T05:28:26;100790.97;;;11.34;100.00
52625;BME280;38519;52.540;13.410;2023-06-01T05:30:51;100793.25;;;11.29;100.00
52625;BME280;38519;52.540;13.410;2023-06-01T05:33:17;100791.19;;;11.37;100.00
52625;BME280;38519;52.540;13.410;2023-06-01T05:35:42;100801.81;;;11.27;100.00
52625;BME280;38519;52.540;13.410;2023-06-01T05:38:07;100797.75;;;11.44;100.00
52625;BME280;38519;52.540;13.410;2023-06-01T05:40:33;100802.03;;;11.55;100.00
52625;BME280;38519;52.540;13.410;2023-06-01T05:42:58;100800.84;;;11.63;100.00
52625;BME280;38519;52.540;13.410;2023-06-01T05:45:23;100808.56;;;11.74;100.00
52625;BME280;38519;52.540;13.410;2023-06-01T05:47:48;100807.44;;;11.70;100.00
52625;BME280;38519;52.540;13.410;2023-06-01T05:50:14;100810.53;;;11.64;100.00
52625;BME280;38519;52.540;13.410;2023-06-01T05:52:39;100808.47;;;11.60;100.00
52625;BME280;38519;52.540;13.410;2023-06-01T05:55:08;100811.09;;;11.60;100.00
52625;BME280;38519;52.540;13.410;2023-06-01T05:57:34;100806.09;;;11.63;100.00
52625;BME280;38519;52.540;13.410;2023-06-01T05:59:59;100810.53;;;11.64;100.00
52625;BME280;38519;52.540;13.410;2023-06-01T06:02:24;100802.59;;;11.76;100.00
52625;BME280;38519;52.540;13.410;2023-06-01T06:04:49;100816.91;;;11.93;100.00
52625;BME280;38519;52.540;13.410;2023-06-01T06:07:15;100819.84;;;11.86;100.00
52625;BME280;38519;52.540;13.410;2023-06-01T06:09:40;100816.41;;;11.99;100.00
52625;BME280;38519;52.540;13.410;2023-06-01T06:12:06;100813.22;;;12.03;100.00
52625;BME280;38519;52.540;13.410;2023-06-01T06:14:31;100813.03;;;12.13;100.00
52625;BME280;38519;52.540;13.410;2023-06-01T06:16:57;100809.09;;;12.07;100.00
52625;BME280;38519;52.540;13.410;2023-06-01T06:19:22;100805.75;;;11.96;100.00
52625;BME280;38519;52.540;13.410;2023-06-01T06:21:47;100806.34;;;11.92;100.00
52625;BME280;38519;52.540;13.410;2023-06-01T06:24:12;100807.09;;;12.02;100.00
52625;BME280;38519;52.540;13.410;2023-06-01T06:26:38;100810.13;;;12.22;100.00
52625;BME280;38519;52.540;13.410;2023-06-01T06:29:03;100818.53;;;12.30;100.00
52625;BME280;38519;52.540;13.410;2023-06-01T06:31:28;100808.47;;;12.36;100.00
52625;BME280;38519;52.540;13.410;2023-06-01T06:33:53;100814.97;;;12.29;100.00
52625;BME280;38519;52.540;13.410;2023-06-01T06:36:19;100818.19;;;12.25;100.00
52625;BME280;38519;52.540;13.410;2023-06-01T06:38:44;100820.19;;;12.16;100.00
52625;BME280;38519;52.540;13.410;2023-06-01T06:41:10;100815.63;;;12.13;100.00
52625;BME280;38519;52.540;13.410;2023-06-01T06:43:35;100818.00;;;12.22;100.00
52625;BME280;38519;52.540;13.410;2023-06-01T06:46:00;100820.63;;;12.22;100.00
52625;BME280;38519;52.540;13.410;2023-06-01T06:48:25;100809.72;;;11.91;100.00
52625;BME280;38519;52.540;13.410;2023-06-01T06:50:51;100810.22;;;12.10;100.00
52625;BME280;38519;52.540;13.410;2023-06-01T06:53:16;100810.16;;;12.35;100.00
52625;BME280;38519;52.540;13.410;2023-06-01T06:55:42;100810.56;;;12.55;100.00
52625;BME280;38519;52.540;13.410;2023-06-01T06:58:08;100807.78;;;12.65;98.12
52625;BME280;38519;52.540;13.410;2023-06-01T07:00:35;100805.84;;;12.63;98.63
52625;BME280;38519;52.540;13.410;2023-06-01T07:03:01;100802.22;;;12.74;97.34
52625;BME280;38519;52.540;13.410;2023-06-01T07:05:26;100800.31;;;12.71;98.36
52625;BME280;38519;52.540;13.410;2023-06-01T07:07:51;100802.94;;;12.85;95.96
52625;BME280;38519;52.540;13.410;2023-06-01T07:10:16;100810.38;;;12.52;97.36
52625;BME280;38519;52.540;13.410;2023-06-01T07:12:42;100797.00;;;12.61;99.08
52625;BME280;38519;52.540;13.410;2023-06-01T07:15:07;100804.66;;;12.84;97.39
52625;BME280;38519;52.540;13.410;2023-06-01T07:17:32;100804.78;;;13.14;96.24
52625;BME280;38519;52.540;13.410;2023-06-01T07:19:59;100805.19;;;13.20;95.33
52625;BME280;38519;52.540;13.410;2023-06-01T07:22:24;100799.34;;;13.24;93.91
52625;BME280;38519;52.540;13.410;2023-06-01T07:24:51;100808.09;;;13.25;93.65
52625;BME280;38519;52.540;13.410;2023-06-01T07:27:17;100807.56;;;13.30;92.59
52625;BME280;38519;52.540;13.410;2023-06-01T07:29:43;100812.66;;;13.41;91.64
52625;BME280;38519;52.540;13.410;2023-06-01T07:32:09;100818.88;;;13.43;91.25
52625;BME280;38519;52.540;13.410;2023-06-01T07:34:34;100806.06;;;13.47;90.90
52625;BME280;38519;52.540;13.410;2023-06-01T07:37:00;100811.09;;;13.44;91.62
52625;BME280;38519;52.540;13.410;2023-06-01T07:39:25;100795.38;;;13.44;91.30
52625;BME280;38519;52.540;13.410;2023-06-01T07:41:51;100806.16;;;13.49;89.89
52625;BME280;38519;52.540;13.410;2023-06-01T07:44:18;100802.09;;;13.54;89.79
52625;BME280;38519;52.540;13.410;2023-06-01T07:46:45;100799.38;;;13.53;90.71
52625;BME280;38519;52.540;13.410;2023-06-01T07:49:10;100793.75;;;13.75;87.84
52625;BME280;38519;52.540;13.410;2023-06-01T07:51:38;100799.28;;;13.79;88.29
52625;BME280;38519;52.540;13.410;2023-06-01T07:54:04;100798.31;;;13.64;87.45
52625;BME280;38519;52.540;13.410;2023-06-01T07:56:29;100800.94;;;13.22;90.80
52625;BME280;38519;52.540;13.410;2023-06-01T07:58:54;100800.94;;;13.22;89.58
52625;BME280;38519;52.540;13.410;2023-06-01T08:01:19;100797.16;;;13.04;89.92
52625;BME280;38519;52.540;13.410;2023-06-01T08:03:45;100785.88;;;12.91;90.25
52625;BME280;38519;52.540;13.410;2023-06-01T08:06:11;100784.59;;;12.85;91.32
52625;BME280;38519;52.540;13.410;2023-06-01T08:08:36;100785.59;;;12.73;91.60
52625;BME280;38519;52.540;13.410;2023-06-01T08:11:02;100789.81;;;12.85;92.60
52625;BME280;38519;52.540;13.410;2023-06-01T08:13:27;100785.75;;;13.03;90.46
52625;BME280;38519;52.540;13.410;2023-06-01T08:15:52;100781.84;;;13.10;91.33
52625;BME280;38519;52.540;13.410;2023-06-01T08:18:18;100783.91;;;13.29;89.61
52625;BME280;38519;52.540;13.410;2023-06-01T08:20:44;100777.09;;;13.46;87.32
52625;BME280;38519;52.540;13.410;2023-06-01T08:23:10;100770.22;;;13.48;87.79
52625;BME280;38519;52.540;13.410;2023-06-01T08:25:35;100782.03;;;13.55;88.19
52625;BME280;38519;52.540;13.410;2023-06-01T08:28:00;100780.16;;;13.67;87.13
52625;BME280;38519;52.540;13.410;2023-06-01T08:30:26;100775.47;;;13.76;87.83
52625;BME280;38519;52.540;13.410;2023-06-01T08:32:51;100771.97;;;13.91;86.62
52625;BME280;38519;52.540;13.410;2023-06-01T08:35:16;100772.16;;;14.09;85.56
52625;BME280;38519;52.540;13.410;2023-06-01T08:37:42;100770.16;;;14.19;84.39
52625;BME280;38519;52.540;13.410;2023-06-01T08:40:07;100768.91;;;14.13;82.91
52625;BME280;38519;52.540;13.410;2023-06-01T08:45:19;100771.22;;;14.38;80.88
52625;BME280;38519;52.540;13.410;2023-06-01T08:47:45;100772.00;;;14.20;81.75
52625;BME280;38519;52.540;13.410;2023-06-01T08:50:11;100761.63;;;14.24;82.88
52625;BME280;38519;52.540;13.410;2023-06-01T08:52:37;100755.16;;;14.32;82.88
52625;BME280;38519;52.540;13.410;2023-06-01T08:55:03;100760.22;;;14.29;82.47
52625;BME280;38519;52.540;13.410;2023-06-01T08:57:29;100758.72;;;14.49;81.76
52625;BME280;38519;52.540;13.410;2023-06-01T08:59:57;100763.13;;;14.80;80.21
52625;BME280;38519;52.540;13.410;2023-06-01T09:02:23;100762.84;;;14.90;78.43
52625;BME280;38519;52.540;13.410;2023-06-01T09:04:49;100760.66;;;14.98;78.86
52625;BME280;38519;52.540;13.410;2023-06-01T09:07:15;100761.38;;;14.95;77.17
52625;BME280;38519;52.540;13.410;2023-06-01T09:09:40;100747.19;;;15.08;77.62
52625;BME280;38519;52.540;13.410;2023-06-01T09:12:22;100757.56;;;15.21;76.77
52625;BME280;38519;52.540;13.410;2023-06-01T09:17:31;100742.09;;;15.44;77.19
52625;BME280;38519;52.540;13.410;2023-06-01T09:19:56;100754.34;;;15.60;76.69
52625;BME280;38519;52.540;13.410;2023-06-01T09:22:22;100748.19;;;15.59;77.30
52625;BME280;38519;52.540;13.410;2023-06-01T09:24:57;100747.72;;;15.83;76.48
52625;BME280;38519;52.540;13.410;2023-06-01T09:27:23;100745.63;;;15.94;76.00
52625;BME280;38519;52.540;13.410;2023-06-01T09:29:54;100743.22;;;15.98;76.18
52625;BME280;38519;52.540;13.410;2023-06-01T09:32:20;100747.84;;;16.02;75.44
52625;BME280;38519;52.540;13.410;2023-06-01T09:34:47;100744.84;;;15.78;76.41
52625;BME280;38519;52.540;13.410;2023-06-01T09:37:12;100726.00;;;15.54;76.35
52625;BME280;38519;52.540;13.410;2023-06-01T09:39:38;100732.50;;;15.61;77.96
52625;BME280;38519;52.540;13.410;2023-06-01T09:42:04;100732.22;;;15.73;77.75
52625;BME280;38519;52.540;13.410;2023-06-01T09:46:57;100725.66;;;16.15;75.30
52625;BME280;38519;52.540;13.410;2023-06-01T09:51:50;100715.69;;;16.44;75.76
52625;BME280;38519;52.540;13.410;2023-06-01T09:54:26;100724.91;;;16.72;73.64
52625;BME280;38519;52.540;13.410;2023-06-01T09:56:52;100724.91;;;16.90;72.14
52625;BME280;38519;52.540;13.410;2023-06-01T09:59:18;100719.78;;;16.93;73.21
52625;BME280;38519;52.540;13.410;2023-06-01T10:01:43;100709.72;;;16.66;73.49
52625;BME280;38519;52.540;13.410;2023-06-01T10:04:11;100710.44;;;17.00;73.69
52625;BME280;38519;52.540;13.410;2023-06-01T10:06:40;100704.03;;;16.95;72.37
52625;BME280;38519;52.540;13.410;2023-06-01T10:09:10;100710.50;;;17.01;72.63
52625;BME280;38519;52.540;13.410;2023-06-01T10:11:41;100711.38;;;17.20;71.53
52625;BME280;38519;52.540;13.410;2023-06-01T10:14:06;100709.22;;;17.31;71.55
52625;BME280;38519;52.540;13.410;2023-06-01T10:16:31;100705.53;;;17.46;72.77
52625;BME280;38519;52.540;13.410;2023-06-01T10:18:57;100705.59;;;17.68;71.78
52625;BME280;38519;52.540;13.410;2023-06-01T10:21:23;100713.47;;;17.46;70.99
52625;BME280;38519;52.540;13.410;2023-06-01T10:23:49;100712.41;;;17.43;71.67
52625;BME280;38519;52.540;13.410;2023-06-01T10:26:15;100707.13;;;17.43;73.31
52625;BME280;38519;52.540;13.410;2023-06-01T10:28:41;100699.53;;;17.51;70.65
52625;BME280;38519;52.540;13.410;2023-06-01T10:33:54;100702.41;;;17.36;72.72
52625;BME280;38519;52.540;13.410;2023-06-01T10:36:19;100698.31;;;17.23;73.43
52625;BME280;38519;52.540;13.410;2023-06-01T10:38:44;100699.06;;;17.40;73.86
52625;BME280;38519;52.540;13.410;2023-06-01T10:41:26;100693.50;;;17.53;72.34
52625;BME280;38519;52.540;13.410;2023-06-01T10:43:52;100695.94;;;17.48;73.85
52625;BME280;38519;52.540;13.410;2023-06-01T10:48:58;100686.63;;;17.57;72.76
52625;BME280;38519;52.540;13.410;2023-06-01T10:51:23;100688.13;;;17.91;72.24
52625;BME280;38519;52.540;13.410;2023-06-01T10:53:50;100686.13;;;18.27;72.43
52625;BME280;38519;52.540;13.410;2023-06-01T10:56:22;100689.91;;;18.34;69.70
52625;BME280;38519;52.540;13.410;2023-06-01T11:01:33;100671.06;;;18.91;68.81
52625;BME280;38519;52.540;13.410;2023-06-01T11:03:58;100683.19;;;19.08;67.99
52625;BME280;38519;52.540;13.410;2023-06-01T11:06:24;100689.63;;;18.92;68.57
52625;BME280;38519;52.540;13.410;2023-06-01T11:08:53;100675.59;;;18.95;69.77
52625;BME280;38519;52.540;13.410;2023-06-01T11:11:19;100679.06;;;18.92;69.15
52625;BME280;38519;52.540;13.410;2023-06-01T11:13:46;100685.13;;;18.90;69.65
52625;BME280;38519;52.540;13.410;2023-06-01T11:16:30;100677.78;;;18.39;72.13
52625;BME280;38519;52.540;13.410;2023-06-01T11:18:56;100667.91;;;18.56;72.11
52625;BME280;38519;52.540;13.410;2023-06-01T11:21:31;100673.13;;;19.00;71.73
52625;BME280;38519;52.540;13.410;2023-06-01T11:23:58;100676.50;;;19.18;69.31
52625;BME280;38519;52.540;13.410;2023-06-01T11:26:28;100676.16;;;19.33;68.82
52625;BME280;38519;52.540;13.410;2023-06-01T11:29:02;100665.72;;;19.14;70.05
52625;BME280;38519;52.540;13.410;2023-06-01T11:31:27;100665.28;;;19.25;70.47
52625;BME280;38519;52.540;13.410;2023-06-01T11:33:58;100667.84;;;19.24;70.82
52625;BME280;38519;52.540;13.410;2023-06-01T11:36:24;100658.44;;;19.32;69.88
52625;BME280;38519;52.540;13.410;2023-06-01T11:38:51;100665.78;;;19.39;69.73
52625;BME280;38519;52.540;13.410;2023-06-01T11:41:16;100661.06;;;19.56;69.82
52625;BME280;38519;52.540;13.410;2023-06-01T11:43:42;100656.16;;;19.67;71.22
52625;BME280;38519;52.540;13.410;2023-06-01T11:46:08;100661.19;;;19.83;70.10
52625;BME280;38519;52.540;13.410;2023-06-01T11:48:34;100651.09;;;19.99;70.15
52625;BME280;38519;52.540;13.410;2023-06-01T11:51:00;100644.34;;;19.57;70.70
52625;BME280;38519;52.540;13.410;2023-06-01T11:53:26;100649.34;;;19.24;72.81
52625;BME280;38519;52.540;13.410;2023-06-01T11:55:55;100645.56;;;19.67;73.57
52625;BME280;38519;52.540;13.410;2023-06-01T11:58:21;100649.03;;;19.90;70.08
52625;BME280;38519;52.540;13.410;2023-06-01T12:00:47;100640.84;;;19.82;71.15
52625;BME280;38519;52.540;13.410;2023-06-01T12:03:12;100645.03;;;20.03;70.89
52625;BME280;38519;52.540;13.410;2023-06-01T12:05:38;100645.78;;;20.25;70.46
52625;BME280;38519;52.540;13.410;2023-06-01T12:08:03;100650.44;;;20.33;69.25
52625;BME280;38519;52.540;13.410;2023-06-01T12:10:29;100638.44;;;19.90;70.77
52625;BME280;38519;52.540;13.410;2023-06-01T12:12:55;100644.16;;;19.77;73.25
52625;BME280;38519;52.540;13.410;2023-06-01T12:15:21;100636.91;;;19.97;71.04
52625;BME280;38519;52.540;13.410;2023-06-01T12:20:11;100639.63;;;20.27;70.23
52625;BME280;38519;52.540;13.410;2023-06-01T12:22:37;100633.97;;;20.15;70.59
52625;BME280;38519;52.540;13.410;2023-06-01T12:25:06;100621.63;;;20.44;71.31
52625;BME280;38519;52.540;13.410;2023-06-01T12:27:33;100625.72;;;20.90;68.34
52625;BME280;38519;52.540;13.410;2023-06-01T12:30:01;100627.88;;;21.36;67.31
52625;BME280;38519;52.540;13.410;2023-06-01T12:32:37;100625.94;;;21.62;66.27
52625;BME280;38519;52.540;13.410;2023-06-01T12:35:03;100624.25;;;22.35;64.78
52625;BME280;38519;52.540;13.410;2023-06-01T12:37:30;100632.16;;;22.70;64.08
52625;BME280;38519;52.540;13.410;2023-06-01T12:39:56;100641.59;;;22.96;63.93
52625;BME280;38519;52.540;13.410;2023-06-01T12:45:00;100618.31;;;22.87;66.05
52625;BME280;38519;52.540;13.410;2023-06-01T12:47:26;100626.03;;;23.16;66.02
52625;BME280;38519;52.540;13.410;2023-06-01T12:50:04;100617.13;;;23.61;65.56
52625;BME280;38519;52.540;13.410;2023-06-01T12:52:30;100614.09;;;23.90;64.56
52625;BME280;38519;52.540;13.410;2023-06-01T12:54:55;100617.13;;;23.61;64.13
52625;BME280;38519;52.540;13.410;2023-06-01T12:57:20;100612.97;;;23.78;65.01
52625;BME280;38519;52.540;13.410;2023-06-01T12:59:46;100605.56;;;23.12;68.06
52625;BME280;38519;52.540;13.410;2023-06-01T13:02:11;100618.00;;;23.14;68.62
52625;BME280;38519;52.540;13.410;2023-06-01T13:04:36;100615.91;;;23.42;67.08